オークランド の空港の天気 - METARとTAF

オークランド国際空港 ( NZAA / AKL ) - ニュージーランド オークランド|オークランド
飛行場実況気象(Metar)
観測時間05/29 10:30 NZST (05/28 22:30 UTC)
風向・風速東北東 7m/s
視程10km以上
天気現象
少しの雲 雲底高度 980m
全天の4割程度の雲 雲底高度 1250m
全天の8割程度の雲 雲底高度 1520m
気温17℃
湿度77%
気圧1021hPa
METARNZAA 282230Z AUTO 07013KT 9999 FEW032/// SCT041/// BKN050/// 17/13 Q1021 NOSIG
過去の天気等 Google飛行場航空写真 Wunderground天気予報

過去48時間のMETAR

飛行場予報(TAF)
発表時間: 5/29 05:03 NZST (5/28 17:03 UTC)
予報対象時間: 29日6時 NZST ~ 30日6時 NZST
風向・風速東 3m/s
視程10km以上
全天の8割程度の雲 雲底高度 1370m
29日8時 NZST ~ 29日10時 NZST に徐々に
風向・風速東北東 8m/s
29日10時 NZST ~ 29日12時 NZST に徐々に
風向・風速北東 10m/s 瞬間風速 15m/s
29日19時 NZST から
風向・風速北東 9m/s
視程10km以上
天気現象弱い雨
全天の4割程度の雲 雲底高度 460m
全天の8割程度の雲 雲底高度 910m
29日19時 NZST ~ 30日6時 NZST に一時的に
風向・風速北東 10m/s 瞬間風速 15m/s
視程6000m
天気現象
全天の8割程度の雲 雲底高度 370m
30日2時 NZST ~ 30日6時 NZST に 確率 30% で一時的に
風向・風速北北東 13m/s 瞬間風速 21m/s
視程2000m
天気現象雷雨
全天の8割程度の雲 雲底高度 240m
全天の4割程度の積乱雲 雲底高度 610m
TAF NZAA 281703Z 2818/2918 10005KT 9999 BKN045
BECMG 2820/2822 06015KT
BECMG 2822/2900 05020G30KT
FM290700 05018KT 9999 -RA SCT015 BKN030
TEMPO 2907/2918 05020G30KT 6000 RA BKN012
PROB30 TEMPO 2914/2918 03025G40KT 2000 TSRA BKN008 SCT020CB